createdAt,value
2022-08-26T00:01:06.838Z,94902
2022-08-26T00:04:32.016Z,94896
2022-08-26T00:07:57.284Z,94903
2022-08-26T00:11:26.494Z,94898
2022-08-26T00:14:47.630Z,94901
2022-08-26T00:18:16.897Z,94896
2022-08-26T00:21:37.935Z,94900
2022-08-26T00:25:03.096Z,94906
2022-08-26T00:28:28.303Z,94908
2022-08-26T00:31:53.517Z,94904
2022-08-26T00:35:18.649Z,94903
2022-08-26T00:38:43.818Z,94901
2022-08-26T00:42:09.013Z,94899
2022-08-26T00:45:34.207Z,94906
2022-08-26T00:48:59.385Z,94902
2022-08-26T00:52:24.572Z,94907
2022-08-26T00:55:49.769Z,94911
2022-08-26T00:59:14.986Z,94907
2022-08-26T01:02:40.218Z,94905
2022-08-26T01:06:05.420Z,94899
2022-08-26T01:09:30.667Z,94900
2022-08-26T01:12:55.893Z,94898
2022-08-26T01:16:21.146Z,94896
2022-08-26T01:19:46.285Z,94900
2022-08-26T01:23:11.453Z,94897
2022-08-26T01:26:36.618Z,94901
2022-08-26T01:30:01.760Z,94902
2022-08-26T01:33:26.927Z,94897
2022-08-26T01:36:52.124Z,94899
2022-08-26T01:40:17.360Z,94900
2022-08-26T01:43:42.464Z,94895
2022-08-26T01:47:07.692Z,94897
2022-08-26T01:50:32.872Z,94895
2022-08-26T01:53:58.039Z,94891
2022-08-26T01:57:23.231Z,94893
2022-08-26T02:00:48.433Z,94890
2022-08-26T02:04:13.603Z,94888
2022-08-26T02:07:38.745Z,94889
2022-08-26T02:11:03.974Z,94893
2022-08-26T02:14:29.209Z,94891
2022-08-26T02:17:54.403Z,94885
2022-08-26T02:21:19.640Z,94884
2022-08-26T02:24:44.805Z,94877
2022-08-26T02:28:09.966Z,94872
2022-08-26T02:31:35.195Z,94873
2022-08-26T02:35:00.289Z,94872
2022-08-26T02:38:25.459Z,94870
2022-08-26T02:41:50.689Z,94871
2022-08-26T02:45:16.369Z,94871
2022-08-26T02:48:41.117Z,94870
2022-08-26T02:52:06.274Z,94866
2022-08-26T02:55:31.430Z,94865
2022-08-26T02:58:56.620Z,94866
2022-08-26T03:02:21.874Z,94862
2022-08-26T03:05:47.012Z,94859
2022-08-26T03:09:13.987Z,94857
2022-08-26T03:12:37.412Z,94867
2022-08-26T03:16:02.643Z,94861
2022-08-26T03:19:27.788Z,94854
2022-08-26T03:22:53.010Z,94856
2022-08-26T03:26:18.195Z,94849
2022-08-26T03:29:43.394Z,94851
2022-08-26T03:33:08.763Z,94848
2022-08-26T03:36:33.870Z,94846
2022-08-26T03:39:59.097Z,94848
2022-08-26T03:43:24.805Z,94851
2022-08-26T03:46:54.056Z,94859
2022-08-26T03:50:22.775Z,94856
2022-08-26T03:53:44.592Z,94855
2022-08-26T03:57:09.802Z,94858
2022-08-26T04:00:34.982Z,94854
2022-08-26T04:04:00.814Z,94850
2022-08-26T04:07:25.398Z,94848
2022-08-26T04:10:50.602Z,94848
2022-08-26T04:14:17.750Z,94851
2022-08-26T04:17:41.003Z,94848
2022-08-26T04:21:07.821Z,94841
2022-08-26T04:24:31.430Z,94840
2022-08-26T04:27:56.634Z,94839
2022-08-26T04:31:21.960Z,94838
2022-08-26T04:34:47.103Z,94835
2022-08-26T04:38:12.317Z,94829
2022-08-26T04:41:37.579Z,94828
2022-08-26T04:45:05.744Z,94827
2022-08-26T04:48:28.078Z,94825
2022-08-26T04:51:56.936Z,94822
2022-08-26T04:55:22.169Z,94823
2022-08-26T04:58:47.411Z,94825
2022-08-26T05:02:12.592Z,94829
2022-08-26T05:05:37.811Z,94827
2022-08-26T05:09:03.030Z,94828
2022-08-26T05:12:28.231Z,94829
2022-08-26T05:15:53.450Z,94829
2022-08-26T05:19:19.091Z,94831
2022-08-26T05:22:43.895Z,94829
2022-08-26T05:26:09.132Z,94832
2022-08-26T05:29:34.353Z,94833
2022-08-26T05:32:59.582Z,94835
2022-08-26T05:36:26.903Z,94840
2022-08-26T05:39:51.049Z,94840
2022-08-26T05:43:15.242Z,94840
2022-08-26T05:46:40.528Z,94838
2022-08-26T05:50:05.663Z,94839
2022-08-26T05:53:30.873Z,94840
2022-08-26T05:56:56.070Z,94846
2022-08-26T06:00:21.273Z,94849
2022-08-26T06:03:46.519Z,94847
2022-08-26T06:07:12.093Z,94852
2022-08-26T06:10:36.970Z,94853
2022-08-26T06:14:03.698Z,94847
2022-08-26T06:17:27.374Z,94851
2022-08-26T06:20:53.733Z,94851
2022-08-26T06:24:17.812Z,94848
2022-08-26T06:27:43.032Z,94853
2022-08-26T06:31:08.264Z,94856
2022-08-26T06:34:33.422Z,94856
2022-08-26T06:37:58.637Z,94856
2022-08-26T06:41:23.831Z,94854
2022-08-26T06:44:49.053Z,94856
2022-08-26T06:48:14.254Z,94857
2022-08-26T06:51:39.484Z,94863
2022-08-26T06:55:04.695Z,94860
2022-08-26T06:58:29.878Z,94859
2022-08-26T07:01:55.286Z,94863
2022-08-26T07:05:20.364Z,94863
2022-08-26T07:08:45.599Z,94860
2022-08-26T07:12:10.841Z,94858
2022-08-26T07:15:36.079Z,94859
2022-08-26T07:19:01.299Z,94861
2022-08-26T07:22:26.506Z,94871
2022-08-26T07:25:51.734Z,94872
2022-08-26T07:29:16.964Z,94868
2022-08-26T07:32:42.180Z,94868
2022-08-26T07:36:07.458Z,94872
2022-08-26T07:39:32.769Z,94875
2022-08-26T07:42:57.926Z,94874
2022-08-26T07:46:27.338Z,94875
2022-08-26T07:49:48.384Z,94869
2022-08-26T07:53:13.640Z,94876
2022-08-26T07:56:38.839Z,94875
2022-08-26T08:00:04.075Z,94871
2022-08-26T08:03:29.331Z,94869
2022-08-26T08:06:54.517Z,94871
2022-08-26T08:10:20.748Z,94865
2022-08-26T08:13:44.974Z,94870
2022-08-26T08:20:35.320Z,94862
2022-08-26T08:24:00.535Z,94862
2022-08-26T08:27:25.723Z,94863
2022-08-26T08:30:51.052Z,94858
2022-08-26T08:34:16.202Z,94858
2022-08-26T08:37:41.445Z,94850
2022-08-26T08:41:06.699Z,94850
2022-08-26T08:44:31.958Z,94847
2022-08-26T08:47:57.207Z,94842
2022-08-26T08:51:22.449Z,94833
2022-08-26T08:54:47.685Z,94833
2022-08-26T08:58:12.944Z,94831
2022-08-26T09:01:38.233Z,94828
2022-08-26T09:05:03.447Z,94824
2022-08-26T09:08:28.687Z,94813
2022-08-26T09:11:53.933Z,94808
2022-08-26T09:15:19.343Z,94810
2022-08-26T09:18:45.370Z,94804
2022-08-26T09:22:10.080Z,94801
2022-08-26T09:25:35.139Z,94802
2022-08-26T09:29:00.385Z,94799
2022-08-26T09:32:25.608Z,94807
2022-08-26T09:35:50.881Z,94798
2022-08-26T09:39:16.092Z,94803
2022-08-26T09:42:41.322Z,94801
2022-08-26T09:46:06.599Z,94809
2022-08-26T09:49:35.682Z,94796
2022-08-26T09:52:57.054Z,94795
2022-08-26T09:56:22.286Z,94793
2022-08-26T09:59:47.521Z,94784
2022-08-26T10:03:15.729Z,94782
2022-08-26T10:06:38.019Z,94781
2022-08-26T10:10:03.242Z,94774
2022-08-26T10:13:35.225Z,94767
2022-08-26T10:17:00.748Z,94767
2022-08-26T10:20:26.267Z,94756
2022-08-26T10:23:51.256Z,94749
2022-08-26T10:27:16.504Z,94744
2022-08-26T10:30:42.856Z,94744
2022-08-26T10:34:06.959Z,94738
2022-08-26T10:37:32.157Z,94738
2022-08-26T10:40:57.381Z,94742
2022-08-26T10:44:22.610Z,94734
2022-08-26T10:47:47.836Z,94731
2022-08-26T10:51:13.061Z,94734
2022-08-26T10:54:38.356Z,94742
2022-08-26T10:58:04.604Z,94739
2022-08-26T12:59:38.005Z,94649
2022-08-26T13:03:03.278Z,94643
2022-08-26T13:06:29.070Z,94639
2022-08-26T13:09:54.349Z,94641
2022-08-26T13:13:19.611Z,94632
2022-08-26T13:16:44.904Z,94632
2022-08-26T13:20:10.145Z,94632
2022-08-26T13:23:37.469Z,94634
2022-08-26T13:27:00.619Z,94640
2022-08-26T13:30:25.897Z,94642
2022-08-26T13:33:51.122Z,94636
2022-08-26T13:37:16.347Z,94640
2022-08-26T13:40:41.641Z,94647
2022-08-26T13:44:06.868Z,94647
2022-08-26T13:47:32.148Z,94645
2022-08-26T13:50:57.383Z,94639
2022-08-26T13:54:22.624Z,94628
2022-08-26T13:57:52.143Z,94621
2022-08-26T14:01:17.749Z,94620
2022-08-26T14:04:42.990Z,94621
2022-08-26T14:08:08.433Z,94626
2022-08-26T14:11:34.802Z,94623
2022-08-26T14:14:58.774Z,94625
2022-08-26T14:18:24.027Z,94626
2022-08-26T14:21:49.267Z,94619
2022-08-26T14:25:14.586Z,94616
2022-08-26T14:28:39.806Z,94611
2022-08-26T15:07:42.280Z,94612
2022-08-26T15:11:07.509Z,94600
2022-08-26T15:14:33.132Z,94593
2022-08-26T15:17:57.989Z,94593
2022-08-26T15:21:23.216Z,94605
2022-08-26T15:24:48.455Z,94610
2022-08-26T15:28:13.676Z,94608
2022-08-26T15:31:38.987Z,94599
